createdAt,value
2023-01-18T00:00:46.378Z,5.75
2023-01-18T00:03:13.600Z,4.97
2023-01-18T00:05:41.657Z,4.50
2023-01-18T00:08:13.466Z,4.45
2023-01-18T00:10:40.324Z,4.45
2023-01-18T00:13:07.184Z,4.13
2023-01-18T00:15:37.097Z,3.53
2023-01-18T00:18:04.030Z,3.88
2023-01-18T00:20:31.387Z,3.85
2023-01-18T00:23:00.901Z,4.05
2023-01-18T00:25:29.061Z,3.88
2023-01-18T00:27:56.119Z,3.78
2023-01-18T00:30:25.318Z,3.42
2023-01-18T00:32:57.446Z,3.90
2023-01-18T00:35:24.482Z,3.60
2023-01-18T00:37:52.170Z,3.72
2023-01-18T00:40:20.585Z,3.63
2023-01-18T00:43:05.954Z,3.85
2023-01-18T00:45:32.707Z,4.13
2023-01-18T00:47:59.313Z,4.22
2023-01-18T00:50:25.928Z,3.80
2023-01-18T00:52:56.916Z,3.65
2023-01-18T00:55:23.917Z,3.70
2023-01-18T00:57:50.812Z,3.50
2023-01-18T01:00:24.184Z,3.50
2023-01-18T01:02:51.785Z,4.05
2023-01-18T01:05:40.721Z,3.67
2023-01-18T01:08:07.660Z,3.35
2023-01-18T01:10:35.125Z,3.45
2023-01-18T01:13:20.770Z,3.03
2023-01-18T01:16:05.634Z,4.30
2023-01-18T01:18:51.133Z,3.67
2023-01-18T01:21:36.318Z,3.88
2023-01-18T01:24:21.664Z,3.53
2023-01-18T01:26:48.351Z,3.22
2023-01-18T01:29:15.997Z,3.72
2023-01-18T01:31:42.701Z,3.50
2023-01-18T01:34:09.861Z,3.75
2023-01-18T01:36:36.415Z,3.60
2023-01-18T01:39:03.040Z,3.58
2023-01-18T01:41:32.664Z,3.58
2023-01-18T01:44:04.448Z,3.75
2023-01-18T01:46:46.678Z,3.50
2023-01-18T01:49:21.299Z,3.65
2023-01-18T01:51:56.320Z,3.17
2023-01-18T01:54:29.376Z,3.80
2023-01-18T01:57:01.364Z,3.85
2023-01-18T01:59:28.059Z,3.25
2023-01-18T02:01:54.704Z,4.15
2023-01-18T02:04:21.301Z,3.25
2023-01-18T02:06:47.832Z,4.03
2023-01-18T02:09:16.202Z,4.15
2023-01-18T02:11:43.871Z,3.70
2023-01-18T02:14:16.469Z,3.33
2023-01-18T02:17:01.785Z,3.45
2023-01-18T02:19:50.653Z,3.70
2023-01-18T02:22:38.994Z,3.60
2023-01-18T02:25:17.420Z,3.78
2023-01-18T02:27:54.304Z,3.58
2023-01-18T02:30:30.601Z,3.50
2023-01-18T02:33:06.546Z,3.55
2023-01-18T02:35:32.948Z,3.42
2023-01-18T02:38:06.024Z,3.38
2023-01-18T02:40:45.427Z,4.47
2023-01-18T02:43:35.184Z,5.07
2023-01-18T02:46:21.392Z,4.90
2023-01-18T02:48:50.082Z,4.13
2023-01-18T02:51:16.547Z,4.68
2023-01-18T02:53:45.499Z,4.60
2023-01-18T02:56:16.960Z,4.50
2023-01-18T02:59:05.111Z,4.07
2023-01-18T03:01:55.122Z,3.90
2023-01-18T03:04:31.233Z,4.13
2023-01-18T03:07:03.757Z,3.58
2023-01-18T03:09:31.209Z,3.65
2023-01-18T03:12:06.077Z,3.28
2023-01-18T03:14:54.078Z,3.65
2023-01-18T03:17:36.226Z,4.18
2023-01-18T03:20:11.175Z,3.92
2023-01-18T03:23:04.295Z,3.55
2023-01-18T03:25:34.808Z,4.05
2023-01-18T03:28:26.861Z,3.42
2023-01-18T03:31:17.009Z,3.72
2023-01-18T03:33:49.837Z,3.75
2023-01-18T03:36:18.381Z,3.70
2023-01-18T03:38:48.034Z,3.75
2023-01-18T03:41:19.927Z,3.42
2023-01-18T03:43:50.361Z,3.78
2023-01-18T03:46:19.839Z,3.67
2023-01-18T03:48:46.416Z,4.03
2023-01-18T03:51:29.891Z,3.38
2023-01-18T03:54:15.352Z,3.47
2023-01-18T03:56:53.079Z,3.35
2023-01-18T03:59:19.607Z,3.65
2023-01-18T04:01:48.282Z,3.67
2023-01-18T04:04:15.217Z,3.92
2023-01-18T04:06:42.421Z,3.58
2023-01-18T04:09:08.991Z,3.75
2023-01-18T04:11:35.481Z,3.25
2023-01-18T04:14:01.893Z,3.83
2023-01-18T04:16:28.442Z,4.10
2023-01-18T04:18:55.060Z,3.83
2023-01-18T04:21:21.722Z,3.97
2023-01-18T04:23:48.155Z,3.70
2023-01-18T04:26:16.661Z,3.95
2023-01-18T04:28:43.459Z,4.03
2023-01-18T04:31:10.092Z,3.60
2023-01-18T04:33:36.915Z,3.67
2023-01-18T04:36:04.160Z,3.80
2023-01-18T04:38:30.721Z,3.58
2023-01-18T04:41:03.205Z,3.47
2023-01-18T04:43:29.934Z,3.92
2023-01-18T04:45:56.850Z,3.75
2023-01-18T04:48:24.373Z,4.03
2023-01-18T04:50:51.570Z,3.55
2023-01-18T04:53:18.588Z,3.22
2023-01-18T04:55:45.479Z,3.67
2023-01-18T04:58:12.014Z,3.50
2023-01-18T05:00:39.943Z,3.67
2023-01-18T05:03:11.289Z,3.50
2023-01-18T05:05:38.014Z,4.00
2023-01-18T05:08:04.635Z,3.42
2023-01-18T05:10:33.534Z,3.50
2023-01-18T05:13:00.530Z,3.05
2023-01-18T05:15:27.737Z,3.83
2023-01-18T05:17:54.289Z,3.40
2023-01-18T05:20:20.895Z,3.17
2023-01-18T05:22:47.564Z,3.47
2023-01-18T05:25:14.189Z,3.63
2023-01-18T05:27:40.849Z,3.25
2023-01-18T05:30:09.660Z,3.53
2023-01-18T05:32:36.398Z,3.22
2023-01-18T05:35:04.970Z,3.67
2023-01-18T05:37:31.664Z,3.65
2023-01-18T05:39:58.194Z,3.83
2023-01-18T05:42:24.689Z,4.00
2023-01-18T05:44:51.196Z,3.30
2023-01-18T05:47:20.532Z,3.92
2023-01-18T05:49:47.113Z,3.58
2023-01-18T05:52:13.733Z,3.40
2023-01-18T05:54:40.273Z,3.17
2023-01-18T05:57:06.866Z,3.95
2023-01-18T05:59:33.422Z,3.75
2023-01-18T06:01:59.955Z,3.80
2023-01-18T06:04:26.599Z,3.40
2023-01-18T06:06:53.393Z,3.58
2023-01-18T06:09:19.876Z,3.50
2023-01-18T06:11:46.363Z,3.53
2023-01-18T06:14:13.076Z,3.22
2023-01-18T06:16:39.608Z,3.38
2023-01-18T06:19:06.275Z,3.72
2023-01-18T06:21:32.869Z,2.97
2023-01-18T06:23:59.472Z,3.30
2023-01-18T06:26:26.028Z,3.50
2023-01-18T06:28:53.569Z,3.38
2023-01-18T06:31:20.222Z,3.83
2023-01-18T06:33:46.735Z,3.63
2023-01-18T06:36:13.384Z,4.20
2023-01-18T06:38:41.339Z,3.63
2023-01-18T06:41:09.120Z,3.53
2023-01-18T06:43:35.619Z,3.92
2023-01-18T06:46:02.956Z,3.55
2023-01-18T06:48:29.929Z,4.95
2023-01-18T06:50:57.385Z,4.18
2023-01-18T06:53:24.584Z,4.80
2023-01-18T06:55:54.857Z,4.40
2023-01-18T06:58:21.438Z,4.20
2023-01-18T07:00:48.122Z,4.10
2023-01-18T07:03:14.687Z,3.78
2023-01-18T07:05:41.169Z,3.90
2023-01-18T07:08:07.698Z,3.50
2023-01-18T07:10:34.259Z,3.90
2023-01-18T07:13:01.170Z,3.97
2023-01-18T07:15:27.730Z,3.97
2023-01-18T07:17:54.389Z,3.33
2023-01-18T07:20:20.913Z,3.78
2023-01-18T07:22:52.585Z,3.40
2023-01-18T07:25:20.796Z,3.38
2023-01-18T07:27:48.900Z,3.70
2023-01-18T07:30:16.302Z,3.47
2023-01-18T07:32:50.936Z,3.17
2023-01-18T07:35:20.025Z,3.15
2023-01-18T07:37:55.316Z,3.63
2023-01-18T07:40:22.201Z,3.42
2023-01-18T07:42:49.140Z,3.22
2023-01-18T07:45:15.836Z,3.92
2023-01-18T07:47:42.723Z,4.25
2023-01-18T07:50:10.240Z,4.20
2023-01-18T07:52:36.708Z,3.78
2023-01-18T07:55:05.213Z,3.58
2023-01-18T07:57:33.033Z,3.92
2023-01-18T07:59:59.598Z,5.05
2023-01-18T08:02:26.141Z,4.20
2023-01-18T08:04:52.664Z,4.05
2023-01-18T08:07:19.924Z,3.75
2023-01-18T08:09:46.428Z,3.75
2023-01-18T08:12:17.913Z,4.45
2023-01-18T08:14:45.971Z,3.80
2023-01-18T08:17:12.733Z,4.30
2023-01-18T08:19:39.426Z,3.60
2023-01-18T08:22:07.774Z,3.92
2023-01-18T08:24:34.230Z,4.00
2023-01-18T08:27:00.806Z,3.80
2023-01-18T08:29:27.246Z,4.15
2023-01-18T08:31:54.239Z,4.40
2023-01-18T08:34:21.874Z,3.58
2023-01-18T08:36:48.360Z,4.07
2023-01-18T08:39:15.070Z,4.22
2023-01-18T08:41:41.934Z,4.43
2023-01-18T08:44:08.429Z,4.32
2023-01-18T08:46:36.400Z,4.57
2023-01-18T08:49:05.628Z,4.47
2023-01-18T08:51:32.591Z,4.75
2023-01-18T08:53:59.855Z,4.15
2023-01-18T08:56:26.672Z,4.72
2023-01-18T08:58:53.418Z,5.43
2023-01-18T09:01:22.984Z,4.50
2023-01-18T09:03:50.621Z,5.30
2023-01-18T09:06:17.412Z,4.28
2023-01-18T09:08:47.489Z,4.80
2023-01-18T09:11:15.117Z,4.63
2023-01-18T09:13:58.572Z,6.07
2023-01-18T09:16:26.240Z,5.88
2023-01-18T09:18:55.221Z,5.80
2023-01-18T09:21:22.350Z,6.03
2023-01-18T09:23:50.773Z,5.80
2023-01-18T09:26:18.341Z,5.53
2023-01-18T09:28:47.746Z,5.32
2023-01-18T09:31:14.611Z,4.88
2023-01-18T09:33:48.305Z,4.90
2023-01-18T09:36:21.441Z,5.70
2023-01-18T09:38:48.108Z,6.22
2023-01-18T09:41:42.782Z,7.28
2023-01-18T09:44:21.550Z,5.60
2023-01-18T09:46:54.496Z,5.65
2023-01-18T09:49:32.675Z,5.25
2023-01-18T09:52:20.036Z,5.28
2023-01-18T09:55:01.024Z,5.93
2023-01-18T09:58:05.779Z,5.68
2023-01-18T10:00:37.123Z,5.30
2023-01-18T10:03:28.726Z,6.13
2023-01-18T10:06:08.932Z,6.35
2023-01-18T10:09:06.979Z,5.78
2023-01-18T10:11:50.499Z,6.10
2023-01-18T10:14:29.056Z,5.20
2023-01-18T10:17:02.494Z,6.65
2023-01-18T10:19:31.382Z,5.80
2023-01-18T10:22:20.877Z,6.88
2023-01-18T10:25:13.045Z,7.18
2023-01-18T10:28:12.837Z,6.97
2023-01-18T10:31:06.049Z,6.90
2023-01-18T10:33:40.899Z,6.65
2023-01-18T10:36:13.575Z,7.25
2023-01-18T10:38:41.195Z,6.78
2023-01-18T10:41:19.331Z,8.25
2023-01-18T10:43:46.855Z,7.60
2023-01-18T10:46:16.963Z,7.45
2023-01-18T10:48:47.279Z,6.95
2023-01-18T10:51:32.146Z,7.82
2023-01-18T10:53:58.730Z,6.78
2023-01-18T10:56:28.303Z,7.75
2023-01-18T10:58:58.393Z,7.50
2023-01-18T11:01:32.009Z,6.80
2023-01-18T11:04:05.938Z,6.13
2023-01-18T11:06:48.038Z,6.57
2023-01-18T11:09:59.276Z,7.93
2023-01-18T11:12:38.869Z,6.50
2023-01-18T11:15:27.733Z,6.32
2023-01-18T11:17:57.955Z,6.65
2023-01-18T11:20:39.183Z,6.40
2023-01-18T11:23:14.837Z,7.25
2023-01-18T11:25:53.413Z,6.43
2023-01-18T11:28:34.059Z,6.72
2023-01-18T11:31:10.221Z,6.85
2023-01-18T11:33:47.891Z,7.75
2023-01-18T11:36:14.530Z,7.38
2023-01-18T11:38:41.578Z,6.38
2023-01-18T11:41:15.707Z,6.38
2023-01-18T11:44:06.724Z,6.28
2023-01-18T11:46:42.602Z,6.80
2023-01-18T11:49:53.513Z,7.10
2023-01-18T11:52:46.805Z,6.32
2023-01-18T11:55:36.290Z,5.70
2023-01-18T11:58:05.180Z,6.15
2023-01-18T12:00:46.799Z,6.00
2023-01-18T12:03:28.398Z,6.05
2023-01-18T12:06:03.819Z,6.43
2023-01-18T12:08:47.994Z,6.03
2023-01-18T12:11:24.163Z,5.88
2023-01-18T12:14:03.473Z,6.32
2023-01-18T12:16:53.970Z,6.40
2023-01-18T12:19:42.481Z,7.55
2023-01-18T12:22:38.662Z,6.15
2023-01-18T12:25:21.990Z,6.40
2023-01-18T12:28:09.702Z,6.15
2023-01-18T12:30:44.242Z,7.28
2023-01-18T12:33:43.523Z,6.78
2023-01-18T12:36:18.843Z,6.72
2023-01-18T12:38:56.037Z,6.75
2023-01-18T12:42:01.290Z,6.18
2023-01-18T12:44:55.969Z,6.10
2023-01-18T12:47:36.125Z,5.78
2023-01-18T12:50:12.847Z,6.30
2023-01-18T12:52:47.719Z,6.55
2023-01-18T12:55:20.989Z,6.22
2023-01-18T12:57:50.408Z,6.30
2023-01-18T13:00:23.052Z,5.82
2023-01-18T13:02:52.838Z,5.95
2023-01-18T13:05:35.512Z,5.85
2023-01-18T13:08:17.009Z,6.30
2023-01-18T13:10:44.671Z,7.32
2023-01-18T13:13:17.688Z,6.60
2023-01-18T13:16:05.752Z,6.00
2023-01-18T13:18:42.603Z,6.78
2023-01-18T13:21:26.669Z,5.85
2023-01-18T13:23:59.988Z,5.40
2023-01-18T13:26:34.586Z,5.70
2023-01-18T13:29:10.261Z,6.10
2023-01-18T13:31:40.436Z,5.80
2023-01-18T13:34:24.389Z,5.57
2023-01-18T13:36:51.011Z,6.13
2023-01-18T13:39:19.541Z,6.80
2023-01-18T13:42:04.323Z,6.18
2023-01-18T13:44:40.288Z,6.50
2023-01-18T13:47:39.482Z,5.97
2023-01-18T13:50:40.014Z,6.00
2023-01-18T13:53:18.413Z,6.32
2023-01-18T13:56:00.074Z,5.93
2023-01-18T13:58:32.409Z,5.93
2023-01-18T14:01:03.584Z,5.30
2023-01-18T14:03:38.709Z,5.90
2023-01-18T14:06:09.113Z,7.40
2023-01-18T14:08:39.791Z,6.35
2023-01-18T14:11:10.320Z,5.72
2023-01-18T14:13:45.788Z,5.13
2023-01-18T14:16:22.837Z,5.22
2023-01-18T14:18:53.706Z,5.22
2023-01-18T14:21:54.128Z,7.50
2023-01-18T14:24:40.559Z,5.97
2023-01-18T14:27:14.398Z,4.90
2023-01-18T14:29:49.726Z,5.35
2023-01-18T14:32:23.198Z,5.03
2023-01-18T14:35:25.961Z,5.40
2023-01-18T14:38:16.738Z,5.97
2023-01-18T14:40:45.960Z,5.38
2023-01-18T14:43:24.888Z,5.68
2023-01-18T14:45:56.297Z,5.88
2023-01-18T14:48:24.496Z,6.72
2023-01-18T14:50:53.993Z,6.88
2023-01-18T14:53:30.817Z,5.82
2023-01-18T14:56:06.660Z,6.20
2023-01-18T14:58:40.318Z,6.35
2023-01-18T15:01:09.066Z,6.45
2023-01-18T15:03:36.451Z,6.32
2023-01-18T15:06:44.915Z,6.47
2023-01-18T15:09:12.834Z,6.35
2023-01-18T15:11:42.035Z,6.50
2023-01-18T15:14:15.730Z,6.88
2023-01-18T15:16:42.583Z,6.00
2023-01-18T15:19:16.860Z,6.28
2023-01-18T15:21:43.993Z,5.78
2023-01-18T15:24:16.188Z,5.55
2023-01-18T15:26:52.217Z,5.65
2023-01-18T15:29:23.908Z,5.78
2023-01-18T15:32:03.655Z,6.32
2023-01-18T15:34:33.557Z,6.38
2023-01-18T15:37:01.931Z,5.47
2023-01-18T15:39:28.866Z,6.63
2023-01-18T15:41:56.913Z,5.38
2023-01-18T15:44:35.702Z,6.55
2023-01-18T15:47:13.643Z,5.28
2023-01-18T15:49:44.405Z,6.03
2023-01-18T15:52:10.960Z,6.15
2023-01-18T15:54:37.813Z,6.07
2023-01-18T15:57:18.840Z,5.43
2023-01-18T15:59:47.754Z,6.03
2023-01-18T16:02:20.135Z,5.88
2023-01-18T16:04:46.836Z,6.32
2023-01-18T16:07:35.929Z,6.32
2023-01-18T16:10:27.752Z,7.32
2023-01-18T16:12:56.506Z,8.18
2023-01-18T16:15:28.188Z,8.65
2023-01-18T16:18:02.733Z,8.18
2023-01-18T16:20:32.301Z,7.57
2023-01-18T16:23:06.705Z,7.50
2023-01-18T16:25:33.288Z,7.45
2023-01-18T16:28:02.542Z,5.95
2023-01-18T16:30:34.463Z,6.40
2023-01-18T16:33:09.370Z,6.65
2023-01-18T16:35:39.706Z,6.47
2023-01-18T16:38:13.507Z,6.47
2023-01-18T16:40:44.070Z,6.47
2023-01-18T16:43:27.391Z,5.60
2023-01-18T16:45:56.534Z,5.60
2023-01-18T16:48:28.296Z,5.05
2023-01-18T16:51:01.568Z,5.60
2023-01-18T16:53:29.239Z,6.13
2023-01-18T16:55:56.738Z,5.90
2023-01-18T16:58:24.134Z,5.97
2023-01-18T17:01:01.515Z,5.57
2023-01-18T17:03:28.140Z,6.15
2023-01-18T17:05:55.476Z,6.00
2023-01-18T17:08:21.980Z,6.32
2023-01-18T17:10:50.704Z,7.43
2023-01-18T17:13:17.794Z,8.50
2023-01-18T17:15:45.625Z,8.40
2023-01-18T17:18:18.297Z,9.98
2023-01-18T17:20:44.884Z,10.05
2023-01-18T17:23:11.519Z,10.55
2023-01-18T17:25:38.766Z,8.88
2023-01-18T17:28:05.563Z,7.45
2023-01-18T17:30:33.032Z,6.90
2023-01-18T17:33:00.635Z,6.93
2023-01-18T17:35:31.932Z,6.70
2023-01-18T17:38:05.712Z,7.07
2023-01-18T17:40:42.548Z,7.25
2023-01-18T17:43:28.500Z,6.70
2023-01-18T17:46:02.543Z,8.10
2023-01-18T17:48:29.486Z,5.95
2023-01-18T17:50:56.060Z,6.80
2023-01-18T17:53:22.843Z,6.55
2023-01-18T17:55:49.874Z,7.95
2023-01-18T17:58:16.340Z,6.75
2023-01-18T18:00:42.902Z,7.05
2023-01-18T18:03:09.882Z,7.15
2023-01-18T18:05:36.703Z,7.60
2023-01-18T18:08:03.184Z,7.53
2023-01-18T18:10:31.012Z,6.75
2023-01-18T18:12:57.881Z,6.90
2023-01-18T18:15:25.029Z,7.18
2023-01-18T18:17:51.640Z,7.50
2023-01-18T18:20:18.278Z,7.05
2023-01-18T18:22:45.010Z,8.15
2023-01-18T18:25:11.577Z,8.07
2023-01-18T18:27:45.361Z,10.18
2023-01-18T18:30:13.016Z,9.55
2023-01-18T18:32:39.650Z,9.65
2023-01-18T18:35:23.278Z,10.55
2023-01-18T18:37:50.953Z,9.27
2023-01-18T18:40:17.965Z,10.02
2023-01-18T18:42:49.927Z,6.90
2023-01-18T18:45:27.121Z,7.50
2023-01-18T18:47:53.831Z,6.80
2023-01-18T18:50:20.404Z,6.88
2023-01-18T18:52:46.896Z,7.05
2023-01-18T18:55:13.657Z,6.65
2023-01-18T18:57:40.238Z,6.75
2023-01-18T19:00:07.816Z,7.10
2023-01-18T19:02:35.635Z,5.55
2023-01-18T19:05:02.387Z,6.13
2023-01-18T19:07:29.255Z,6.30
2023-01-18T19:09:55.978Z,6.88
2023-01-18T19:12:22.604Z,7.00
2023-01-18T19:14:49.165Z,7.63
2023-01-18T19:17:25.172Z,7.78
2023-01-18T19:19:55.983Z,6.68
2023-01-18T19:22:22.490Z,7.85
2023-01-18T19:24:49.333Z,7.40
2023-01-18T19:27:16.588Z,7.03
2023-01-18T19:29:43.205Z,7.53
2023-01-18T19:32:09.765Z,6.90
2023-01-18T19:34:38.652Z,7.55
2023-01-18T19:37:05.661Z,7.18
2023-01-18T19:39:35.475Z,7.15
2023-01-18T19:42:02.582Z,7.88
2023-01-18T19:44:29.289Z,6.60
2023-01-18T19:46:56.871Z,7.22
2023-01-18T19:49:26.221Z,7.05
2023-01-18T19:51:54.302Z,6.13
2023-01-18T19:54:21.012Z,6.28
2023-01-18T19:56:47.448Z,6.22
2023-01-18T19:59:14.993Z,6.18
2023-01-18T20:01:41.949Z,7.10
2023-01-18T20:04:08.798Z,6.60
2023-01-18T20:06:38.271Z,6.57
2023-01-18T20:09:17.648Z,6.13
2023-01-18T20:11:45.706Z,6.72
2023-01-18T20:14:12.479Z,5.65
2023-01-18T20:16:39.110Z,5.47
2023-01-18T20:19:05.744Z,5.70
2023-01-18T20:21:32.195Z,5.18
2023-01-18T20:23:58.975Z,5.80
2023-01-18T20:26:35.861Z,5.70
2023-01-18T20:29:06.813Z,5.82
2023-01-18T20:31:36.085Z,5.30
2023-01-18T20:34:03.548Z,5.88
2023-01-18T20:36:30.523Z,5.38
2023-01-18T20:38:57.385Z,5.22
2023-01-18T20:41:24.013Z,5.00
2023-01-18T20:43:50.586Z,4.72
2023-01-18T20:46:17.211Z,5.13
2023-01-18T20:48:43.821Z,4.80
2023-01-18T20:51:10.509Z,4.43
2023-01-18T20:53:39.982Z,4.32
2023-01-18T20:56:27.924Z,4.07
2023-01-18T20:58:55.159Z,3.80
2023-01-18T21:01:21.751Z,4.55
2023-01-18T21:03:55.210Z,4.63
2023-01-18T21:06:21.711Z,4.80
2023-01-18T21:08:52.527Z,6.13
2023-01-18T21:14:49.235Z,4.75
2023-01-18T21:17:15.727Z,7.50
2023-01-18T21:19:45.926Z,6.68
2023-01-18T21:22:13.205Z,5.53
2023-01-18T21:24:39.845Z,5.78
2023-01-18T21:27:08.038Z,6.20
2023-01-18T21:29:34.508Z,8.32
2023-01-18T21:32:01.454Z,10.40
2023-01-18T21:34:28.014Z,8.63
2023-01-18T21:36:54.514Z,6.57
2023-01-18T21:39:25.193Z,6.90
2023-01-18T21:42:11.157Z,5.18
2023-01-18T21:47:33.080Z,4.68
2023-01-18T21:50:18.899Z,4.32
2023-01-18T21:53:04.149Z,4.47
2023-01-18T21:55:30.710Z,4.00
2023-01-18T21:58:15.564Z,4.38
2023-01-18T22:00:42.444Z,4.40
2023-01-18T22:03:09.846Z,3.80
2023-01-18T22:05:36.434Z,4.35
2023-01-18T22:08:03.174Z,3.78
2023-01-18T22:10:29.872Z,4.00
2023-01-18T22:12:56.415Z,3.90
2023-01-18T22:15:23.173Z,3.70
2023-01-18T22:17:49.784Z,3.67
2023-01-18T22:20:16.668Z,3.53
2023-01-18T22:22:43.200Z,3.33
2023-01-18T22:25:09.981Z,3.70
2023-01-18T22:27:36.491Z,3.25
2023-01-18T22:30:03.953Z,3.47
2023-01-18T22:32:30.483Z,3.50
2023-01-18T22:34:57.275Z,3.60
2023-01-18T22:37:25.754Z,3.40
2023-01-18T22:39:52.353Z,3.25
2023-01-18T22:42:18.982Z,3.65
2023-01-18T22:44:46.544Z,3.75
2023-01-18T22:47:13.078Z,3.38
2023-01-18T22:49:39.645Z,3.90
2023-01-18T22:52:06.200Z,3.72
2023-01-18T22:54:32.716Z,3.38
2023-01-18T22:56:59.247Z,3.10
2023-01-18T22:59:25.831Z,3.63
2023-01-18T23:01:52.411Z,3.60
2023-01-18T23:04:18.937Z,3.88
2023-01-18T23:06:46.751Z,4.13
2023-01-18T23:09:17.656Z,4.05
2023-01-18T23:11:45.458Z,3.90
2023-01-18T23:14:30.471Z,4.30
2023-01-18T23:17:15.806Z,4.15
2023-01-18T23:19:42.341Z,4.10
2023-01-18T23:22:08.925Z,4.28
2023-01-18T23:24:36.756Z,4.40
2023-01-18T23:27:06.257Z,4.47
2023-01-18T23:29:33.591Z,4.28
2023-01-18T23:32:00.181Z,4.72
2023-01-18T23:34:26.755Z,4.10
2023-01-18T23:36:53.738Z,4.53
2023-01-18T23:39:39.361Z,4.30
2023-01-18T23:42:24.450Z,4.40
2023-01-18T23:45:09.759Z,4.35
2023-01-18T23:47:55.231Z,5.00
2023-01-18T23:50:40.723Z,4.60
2023-01-18T23:53:30.711Z,4.45
2023-01-18T23:55:57.874Z,5.00
2023-01-18T23:58:24.910Z,4.95
